createdAt,value
2019-05-09T00:04:03.426Z,28.10
2019-05-09T00:09:05.606Z,28.57
2019-05-09T00:14:07.347Z,28.17
2019-05-09T00:19:09.757Z,29.93
2019-05-09T00:24:13.906Z,27.97
2019-05-09T00:29:33.486Z,26.20
2019-05-09T00:34:40.285Z,27.03
2019-05-09T00:39:43.444Z,26.27
2019-05-09T00:44:47.051Z,25.80
2019-05-09T00:49:49.044Z,26.90
2019-05-09T00:54:53.013Z,26.33
2019-05-09T00:59:54.100Z,24.83
2019-05-09T01:04:55.717Z,27.20
2019-05-09T01:09:57.362Z,25.63
2019-05-09T01:14:58.875Z,24.93
2019-05-09T01:20:00.417Z,24.33
2019-05-09T01:25:04.285Z,26.93
2019-05-09T01:30:06.074Z,28.17
2019-05-09T01:35:09.346Z,26.33
2019-05-09T01:40:13.183Z,25.33
2019-05-09T01:45:14.692Z,27.13
2019-05-09T01:50:16.982Z,26.37
2019-05-09T01:55:18.601Z,27.37
2019-05-09T02:00:20.214Z,26.07
2019-05-09T02:05:23.957Z,26.63
2019-05-09T02:10:25.599Z,25.67
2019-05-09T02:15:29.420Z,27.40
2019-05-09T02:20:33.222Z,25.10
2019-05-09T02:25:37.574Z,26.83
2019-05-09T02:30:39.061Z,24.30
2019-05-09T02:35:56.407Z,27.50
2019-05-09T02:40:48.641Z,26.47
2019-05-09T02:45:52.842Z,30.27
2019-05-09T02:50:55.066Z,24.37
2019-05-09T02:55:58.419Z,37.70
2019-05-09T03:01:02.030Z,35.03
2019-05-09T03:06:05.206Z,40.50
2019-05-09T03:11:09.870Z,28.13
2019-05-09T03:16:12.148Z,24.23
2019-05-09T03:21:19.124Z,25.90
2019-05-09T03:26:23.308Z,46.93
2019-05-09T03:31:29.784Z,44.83
2019-05-09T03:36:30.625Z,33.97
2019-05-09T03:41:32.407Z,60.67
2019-05-09T03:46:38.864Z,73.10
2019-05-09T03:51:40.723Z,38.90
2019-05-09T03:56:50.248Z,42.40
2019-05-09T04:01:51.975Z,40.93
2019-05-09T04:06:54.214Z,37.33
2019-05-09T04:11:55.847Z,39.27
2019-05-09T04:16:57.969Z,45.87
2019-05-09T04:22:02.221Z,39.60
2019-05-09T04:27:07.830Z,38.90
2019-05-09T04:32:09.846Z,52.33
2019-05-09T04:37:12.300Z,38.40
2019-05-09T04:42:14.206Z,58.60
2019-05-09T04:47:17.378Z,36.37
2019-05-09T04:52:19.245Z,51.60
2019-05-09T04:57:21.009Z,47.37
2019-05-09T05:02:24.389Z,52.00
2019-05-09T05:07:25.758Z,47.03
2019-05-09T05:12:27.998Z,47.73
2019-05-09T05:17:30.745Z,49.90
2019-05-09T05:22:38.720Z,53.20
2019-05-09T05:27:40.425Z,61.43
2019-05-09T05:32:43.876Z,49.30
2019-05-09T05:37:47.591Z,45.87
2019-05-09T05:42:49.725Z,56.30
2019-05-09T05:47:57.641Z,51.80
2019-05-09T05:52:59.263Z,64.30
2019-05-09T05:58:01.294Z,45.03
2019-05-09T06:03:03.074Z,60.07
2019-05-09T06:08:05.099Z,56.57
2019-05-09T06:13:07.974Z,53.07
2019-05-09T06:18:09.947Z,42.03
2019-05-09T06:23:11.600Z,38.33
2019-05-09T06:28:13.152Z,36.50
2019-05-09T06:33:14.809Z,46.47
2019-05-09T06:38:18.556Z,56.60
2019-05-09T06:43:21.957Z,36.33
2019-05-09T06:48:23.497Z,37.53
2019-05-09T06:53:27.244Z,45.20
2019-05-09T06:58:42.277Z,44.37
2019-05-09T07:03:48.068Z,46.73
2019-05-09T07:08:58.557Z,33.60
2019-05-09T07:14:00.289Z,40.13
2019-05-09T07:19:01.930Z,43.40
2019-05-09T07:24:03.603Z,43.80
2019-05-09T07:29:07.356Z,37.07
2019-05-09T07:34:13.919Z,43.20
2019-05-09T07:39:17.614Z,47.23
2019-05-09T07:44:19.353Z,40.33
2019-05-09T07:49:20.797Z,44.40
2019-05-09T07:54:25.654Z,40.23
2019-05-09T07:59:27.421Z,43.60
2019-05-09T08:04:29.630Z,35.77
2019-05-09T08:09:33.979Z,36.33
2019-05-09T08:14:37.786Z,33.10
2019-05-09T08:19:39.107Z,27.70
2019-05-09T08:24:40.771Z,32.93
2019-05-09T08:29:42.396Z,44.73
2019-05-09T08:34:44.302Z,31.77
2019-05-09T08:39:52.148Z,53.73
2019-05-09T08:44:59.373Z,44.10
2019-05-09T08:50:17.462Z,29.60
2019-05-09T08:55:18.687Z,32.03
2019-05-09T09:00:20.312Z,37.23
2019-05-09T09:05:22.025Z,39.23
2019-05-09T09:10:23.997Z,23.93
2019-05-09T09:15:50.136Z,28.33
2019-05-09T09:20:29.172Z,26.37
2019-05-09T09:25:30.713Z,22.57
2019-05-09T09:30:32.428Z,23.13
2019-05-09T09:35:33.970Z,24.60
2019-05-09T09:40:38.297Z,23.40
2019-05-09T09:45:39.302Z,26.00
2019-05-09T09:50:41.208Z,37.13
2019-05-09T09:55:43.043Z,28.70
2019-05-09T10:00:52.736Z,30.13
2019-05-09T10:06:10.594Z,32.53
2019-05-09T10:11:15.113Z,32.47
2019-05-09T10:16:29.233Z,34.40
2019-05-09T10:21:39.144Z,30.80
2019-05-09T10:27:00.219Z,33.93
2019-05-09T10:32:03.261Z,31.57
2019-05-09T10:37:07.520Z,36.33
2019-05-09T10:42:25.626Z,31.93
2019-05-09T10:47:29.192Z,36.53
2019-05-09T10:52:31.404Z,36.10
2019-05-09T10:57:34.881Z,37.23
2019-05-09T11:02:37.075Z,36.33
2019-05-09T11:07:38.517Z,39.37
2019-05-09T11:12:40.424Z,37.17
2019-05-09T11:17:42.208Z,37.50
2019-05-09T11:22:43.631Z,32.73
2019-05-09T11:27:45.251Z,35.43
2019-05-09T11:32:48.099Z,36.57
2019-05-09T11:37:49.820Z,39.63
2019-05-09T11:42:51.373Z,43.50
2019-05-09T11:47:53.294Z,34.60
2019-05-09T11:52:54.838Z,31.57
2019-05-09T11:57:58.996Z,30.27
2019-05-09T12:03:01.358Z,31.57
2019-05-09T12:08:03.458Z,35.23
2019-05-09T12:13:05.006Z,30.67
2019-05-09T12:18:10.895Z,31.37
2019-05-09T12:23:10.630Z,30.27
2019-05-09T12:28:12.811Z,32.40
2019-05-09T12:33:14.464Z,31.00
2019-05-09T12:38:18.096Z,33.00
2019-05-09T12:43:19.717Z,33.17
2019-05-09T12:48:22.391Z,35.30
2019-05-09T12:53:24.098Z,37.13
2019-05-09T12:58:27.677Z,37.87
2019-05-09T13:03:30.071Z,35.40
2019-05-09T13:08:31.606Z,39.20
2019-05-09T13:13:33.121Z,36.13
2019-05-09T13:18:53.177Z,36.20
2019-05-09T13:23:58.886Z,37.40
2019-05-09T13:29:00.661Z,39.00
2019-05-09T13:34:02.339Z,37.83
2019-05-09T13:39:08.602Z,37.90
2019-05-09T13:44:13.546Z,41.07
2019-05-09T13:49:15.580Z,38.87
2019-05-09T13:54:18.500Z,38.93
2019-05-09T13:59:22.741Z,39.63
2019-05-09T14:04:24.316Z,39.17
2019-05-09T14:09:29.235Z,39.93
2019-05-09T14:14:29.655Z,39.10
2019-05-09T14:19:45.155Z,37.30
2019-05-09T14:24:35.077Z,38.53
2019-05-09T14:29:38.390Z,38.37
2019-05-09T14:34:42.622Z,39.70
2019-05-09T14:39:55.874Z,39.97
2019-05-09T14:44:47.505Z,37.50
2019-05-09T14:49:50.251Z,41.80
2019-05-09T14:54:52.787Z,39.03
2019-05-09T14:59:54.785Z,38.90
2019-05-09T15:04:58.517Z,39.00
2019-05-09T15:10:00.170Z,37.47
2019-05-09T15:15:03.899Z,39.40
2019-05-09T15:20:08.723Z,40.40
2019-05-09T15:25:10.853Z,39.23
2019-05-09T15:30:13.184Z,39.87
2019-05-09T15:35:14.715Z,39.73
2019-05-09T15:40:17.745Z,38.10
2019-05-09T15:45:20.590Z,37.77
2019-05-09T15:50:23.270Z,40.70
2019-05-09T15:55:28.426Z,38.80
2019-05-09T16:00:30.262Z,39.33
2019-05-09T16:05:31.994Z,38.90
2019-05-09T16:10:33.429Z,37.93
2019-05-09T16:15:34.936Z,38.60
2019-05-09T16:20:40.283Z,40.70
2019-05-09T16:25:40.301Z,38.63
2019-05-09T16:30:41.853Z,37.90
2019-05-09T16:35:43.440Z,37.33
2019-05-09T16:40:47.726Z,37.60
2019-05-09T16:45:49.484Z,35.80
2019-05-09T16:51:00.638Z,36.67
2019-05-09T16:55:57.691Z,37.97
2019-05-09T17:00:59.282Z,37.97
2019-05-09T17:06:00.852Z,37.30
2019-05-09T17:11:07.717Z,36.30
2019-05-09T17:16:09.853Z,37.47
2019-05-09T17:21:24.128Z,37.60
2019-05-09T17:26:23.251Z,37.60
2019-05-09T17:31:27.396Z,37.17
2019-05-09T17:36:30.079Z,36.83
2019-05-09T17:41:34.220Z,37.80
2019-05-09T17:46:40.652Z,37.93
2019-05-09T17:51:44.050Z,38.30
2019-05-09T17:56:48.421Z,37.87
2019-05-09T18:01:51.081Z,36.97
2019-05-09T18:06:52.961Z,37.87
2019-05-09T18:11:54.849Z,36.77
2019-05-09T18:16:58.777Z,37.40
2019-05-09T18:22:02.600Z,38.73
2019-05-09T18:27:04.493Z,37.63
2019-05-09T18:32:10.243Z,37.70
2019-05-09T18:37:12.044Z,37.73
2019-05-09T18:42:13.801Z,37.87
2019-05-09T18:47:22.913Z,37.40
2019-05-09T18:52:26.769Z,39.63
2019-05-09T18:57:28.651Z,38.50
2019-05-09T19:02:33.402Z,37.80
2019-05-09T19:07:36.739Z,38.60
2019-05-09T19:12:38.695Z,37.50
2019-05-09T19:17:47.705Z,36.90
2019-05-09T19:22:49.530Z,38.10
2019-05-09T19:27:51.503Z,38.33
2019-05-09T19:32:53.496Z,37.87
2019-05-09T19:37:55.257Z,42.93
2019-05-09T19:42:57.174Z,37.97
2019-05-09T19:48:01.751Z,38.40
2019-05-09T19:53:04.176Z,38.33
2019-05-09T19:58:06.541Z,37.00
2019-05-09T20:03:08.310Z,39.07
2019-05-09T20:08:10.396Z,38.10
2019-05-09T20:13:17.276Z,39.63
2019-05-09T20:18:18.836Z,43.03
2019-05-09T20:23:20.517Z,38.07
2019-05-09T20:28:22.143Z,40.90
2019-05-09T20:33:23.830Z,40.87
2019-05-09T20:38:26.167Z,38.67
2019-05-09T20:43:27.719Z,37.93
2019-05-09T20:48:29.361Z,42.30
2019-05-09T20:53:31.863Z,40.27
2019-05-09T20:58:33.741Z,38.93
2019-05-09T21:03:35.604Z,41.83
2019-05-09T21:08:37.405Z,41.03
2019-05-09T21:13:48.077Z,39.10
2019-05-09T21:18:42.383Z,36.77
2019-05-09T21:23:45.018Z,38.23
2019-05-09T21:28:46.551Z,37.87
2019-05-09T21:33:48.207Z,37.00
2019-05-09T21:38:50.127Z,38.67
2019-05-09T21:43:52.095Z,37.03
2019-05-09T21:48:53.587Z,42.50
2019-05-09T21:53:55.652Z,45.57
2019-05-09T21:58:57.478Z,42.27
2019-05-09T22:03:58.979Z,39.67
2019-05-09T22:09:01.124Z,44.07
2019-05-09T22:14:02.765Z,42.50
2019-05-09T22:19:04.386Z,43.20
2019-05-09T22:24:05.991Z,41.10
2019-05-09T22:29:07.634Z,49.00
2019-05-09T22:34:09.373Z,46.70
2019-05-09T22:39:11.044Z,47.43
2019-05-09T22:44:12.687Z,46.97
2019-05-09T22:49:14.383Z,46.33
2019-05-09T22:54:15.917Z,42.57
2019-05-09T22:59:22.441Z,41.47
2019-05-09T23:04:24.486Z,42.17
2019-05-09T23:09:26.065Z,31.07
2019-05-09T23:14:27.683Z,31.73
2019-05-09T23:19:29.311Z,35.33
2019-05-09T23:24:32.925Z,33.10
2019-05-09T23:29:34.572Z,30.27
2019-05-09T23:34:36.249Z,28.53
2019-05-09T23:39:45.693Z,29.93
2019-05-09T23:44:50.996Z,29.53
2019-05-09T23:49:58.827Z,30.67
2019-05-09T23:55:20.763Z,30.30
